Time;durP1;ratioP1;P1;durP2;ratioP2;P2;SDS_P1;SDS_P2;PMS_P1;PMS_P2;Temp;Humidity;BMP_temperature;BMP_pressure;BME280_temperature;BME280_humidity;BME280_pressure;Samples;Min_cycle;Max_cycle;Signal;HPM_P1;HPM_P2
2021/04/04 00:01:20;;;;;;;5.37;4.30;;;1.00;76.00;;;;;;5062186;28;20570;-58
2021/04/04 00:03:46;;;;;;;10.03;4.40;;;1.00;76.40;;;;;;5055577;28;20181;-58
2021/04/04 00:06:12;;;;;;;7.00;5.00;;;1.00;77.00;;;;;;5059052;28;20439;-58
2021/04/04 00:08:37;;;;;;;7.63;4.63;;;1.00;77.30;;;;;;5057842;28;20544;-57
2021/04/04 00:11:05;;;;;;;8.03;4.47;;;1.00;77.10;;;;;;5060604;28;20245;-59
2021/04/04 00:13:31;;;;;;;10.53;5.60;;;0.90;77.40;;;;;;5061964;28;20191;-58
2021/04/04 00:15:57;;;;;;;9.67;5.90;;;0.90;77.80;;;;;;5063226;28;20548;-55
2021/04/04 00:18:23;;;;;;;12.43;6.20;;;0.90;78.10;;;;;;5063079;28;20509;-60
2021/04/04 00:20:49;;;;;;;13.87;6.67;;;0.80;78.00;;;;;;5055565;28;20499;-58
2021/04/04 00:23:14;;;;;;;10.57;4.73;;;0.80;78.50;;;;;;5054062;28;20174;-59
2021/04/04 00:25:40;;;;;;;5.07;4.57;;;0.80;78.90;;;;;;5060230;28;20184;-58
2021/04/04 00:28:06;;;;;;;10.17;4.40;;;0.80;79.20;;;;;;5054897;28;20233;-60
2021/04/04 00:30:32;;;;;;;9.87;4.70;;;0.80;79.30;;;;;;5064996;28;20577;-61
2021/04/04 00:32:57;;;;;;;10.73;4.80;;;0.80;79.20;;;;;;5068767;28;20439;-59
2021/04/04 00:35:23;;;;;;;10.93;5.00;;;0.70;79.20;;;;;;5059985;28;20177;-60
2021/04/04 00:37:55;;;;;;;6.73;4.70;;;0.70;79.70;;;;;;5061007;28;20227;-58
2021/04/04 00:40:20;;;;;;;7.90;4.50;;;0.70;79.60;;;;;;5054761;28;20209;-58
2021/04/04 00:42:46;;;;;;;9.40;5.30;;;0.60;80.10;;;;;;5067162;28;20418;-56
2021/04/04 00:45:15;;;;;;;10.30;4.00;;;0.60;80.20;;;;;;5060791;28;20176;-58
2021/04/04 00:47:41;;;;;;;8.40;4.50;;;0.60;80.60;;;;;;5058307;28;20443;-59
2021/04/04 00:50:08;;;;;;;9.83;4.40;;;0.60;81.00;;;;;;5061774;28;20515;-58
2021/04/04 00:52:36;;;;;;;8.13;4.40;;;0.50;80.90;;;;;;5083342;28;20216;-58
2021/04/04 00:55:03;;;;;;;7.53;4.40;;;0.50;81.40;;;;;;5059467;28;20500;-57
2021/04/04 00:57:30;;;;;;;5.70;4.60;;;0.40;81.50;;;;;;5076349;28;20451;-56
2021/04/04 00:59:55;;;;;;;9.77;5.33;;;0.40;81.60;;;;;;5061428;28;21349;-59
2021/04/04 01:02:22;;;;;;;12.23;5.57;;;0.40;82.10;;;;;;5063151;28;20431;-59
2021/04/04 01:04:50;;;;;;;6.10;4.13;;;0.40;82.50;;;;;;5070257;28;20180;-57
2021/04/04 01:07:15;;;;;;;7.87;5.13;;;0.40;82.60;;;;;;5066900;28;20896;-59
2021/04/04 01:09:41;;;;;;;6.50;4.63;;;0.40;82.50;;;;;;5068787;28;20548;-56
2021/04/04 01:12:17;;;;;;;7.10;4.40;;;0.40;82.30;;;;;;5064603;28;20212;-59
2021/04/04 01:15:01;;;;;;;9.10;4.67;;;0.40;82.40;;;;;;5063305;28;20675;-59
2021/04/04 01:17:30;;;;;;;12.30;5.07;;;0.30;83.00;;;;;;5069279;28;20450;-59
2021/04/04 01:20:18;;;;;;;7.80;4.40;;;0.40;83.10;;;;;;5077389;28;20447;-60
2021/04/04 01:22:58;;;;;;;11.57;4.90;;;0.30;82.80;;;;;;5070709;28;20434;-60
2021/04/04 01:25:53;;;;;;;13.20;5.20;;;0.30;82.90;;;;;;5087489;28;20434;-60
2021/04/04 01:28:26;;;;;;;7.07;4.80;;;0.30;83.00;;;;;;5063782;28;20440;-59
2021/04/04 01:30:52;;;;;;;13.33;4.77;;;0.20;83.30;;;;;;5062367;28;20513;-59
2021/04/04 01:33:20;;;;;;;14.53;5.20;;;0.20;83.40;;;;;;5058092;28;20496;-59
2021/04/04 01:35:51;;;;;;;8.20;5.00;;;0.20;83.50;;;;;;5063113;28;20443;-58
2021/04/04 01:38:20;;;;;;;6.13;4.77;;;0.20;83.60;;;;;;5067019;28;21156;-59
2021/04/04 01:40:54;;;;;;;6.33;4.67;;;0.20;83.80;;;;;;5067250;28;20507;-59
2021/04/04 01:43:20;;;;;;;8.00;4.67;;;0.20;83.80;;;;;;5059224;28;20462;-60
2021/04/04 01:45:46;;;;;;;7.20;4.80;;;0.20;84.00;;;;;;5064065;28;20436;-59
2021/04/04 01:48:13;;;;;;;7.60;4.73;;;0.20;84.00;;;;;;5061921;28;20434;-59
2021/04/04 01:50:40;;;;;;;10.43;5.13;;;0.20;84.00;;;;;;5064808;28;20200;-59
2021/04/04 01:53:07;;;;;;;13.10;4.97;;;0.20;84.30;;;;;;5071096;28;20536;-59
2021/04/04 01:55:34;;;;;;;10.77;6.00;;;0.20;83.80;;;;;;5068314;28;21451;-59
2021/04/04 01:58:00;;;;;;;7.57;5.70;;;0.10;83.90;;;;;;5061605;28;20516;-60
2021/04/04 02:00:27;;;;;;;8.40;5.20;;;0.10;84.50;;;;;;5060150;28;20482;-59
2021/04/04 02:02:54;;;;;;;7.83;5.03;;;0.10;84.80;;;;;;5064586;28;20432;-59
2021/04/04 02:05:20;;;;;;;6.20;4.60;;;0.10;85.30;;;;;;5066496;28;20464;-58
2021/04/04 02:07:49;;;;;;;9.67;5.30;;;0.00;85.60;;;;;;5066119;28;20438;-59
2021/04/04 02:10:23;;;;;;;10.90;5.17;;;0.00;85.40;;;;;;5074972;22;20505;-60
2021/04/04 02:12:51;;;;;;;9.33;5.07;;;0.00;85.50;;;;;;5035326;28;20428;-60
2021/04/04 02:15:19;;;;;;;10.50;5.03;;;0.00;86.00;;;;;;5043835;28;20942;-59
2021/04/04 02:17:47;;;;;;;25.43;5.23;;;-0.10;85.80;;;;;;5046751;28;20469;-60
2021/04/04 02:20:16;;;;;;;6.73;5.30;;;-0.10;85.90;;;;;;5047616;28;20959;-60
2021/04/04 02:22:42;;;;;;;9.47;5.00;;;-0.10;86.00;;;;;;5048846;28;21000;-60
2021/04/04 02:25:12;;;;;;;8.80;5.97;;;-0.10;86.20;;;;;;5043381;28;20470;-60
2021/04/04 02:27:40;;;;;;;12.73;5.57;;;-0.10;86.40;;;;;;5041121;28;20888;-59
2021/04/04 02:30:08;;;;;;;9.57;5.33;;;-0.10;86.40;;;;;;5041370;28;20435;-59
2021/04/04 02:32:38;;;;;;;6.00;4.83;;;-0.20;86.30;;;;;;5045208;28;20469;-61
2021/04/04 02:35:05;;;;;;;8.43;5.20;;;-0.20;86.80;;;;;;5049779;28;20849;-60
2021/04/04 02:37:31;;;;;;;6.43;4.13;;;-0.20;86.80;;;;;;5046656;28;20481;-61
2021/04/04 02:40:04;;;;;;;9.57;4.73;;;-0.20;86.90;;;;;;5046075;28;20438;-60
2021/04/04 02:42:31;;;;;;;11.37;4.80;;;-0.30;87.30;;;;;;5045532;28;20431;-63
2021/04/04 02:45:00;;;;;;;5.30;4.60;;;-0.30;87.40;;;;;;5045228;28;20463;-60
2021/04/04 02:47:51;;;;;;;11.73;4.83;;;-0.30;87.50;;;;;;5048045;28;20435;-61
2021/04/04 02:50:18;;;;;;;7.67;5.23;;;-0.30;87.70;;;;;;5040689;28;20455;-60
2021/04/04 02:52:45;;;;;;;6.87;4.43;;;-0.40;87.70;;;;;;5049569;28;20457;-61
2021/04/04 02:55:14;;;;;;;8.47;4.50;;;-0.40;88.20;;;;;;5042535;28;20442;-61
2021/04/04 02:57:40;;;;;;;10.20;5.03;;;-0.40;88.60;;;;;;5045639;28;20841;-60
2021/04/04 03:00:08;;;;;;;7.70;5.33;;;-0.40;88.80;;;;;;5048980;28;20431;-59
2021/04/04 03:02:37;;;;;;;12.77;5.83;;;-0.40;89.00;;;;;;5042448;28;20431;-60
2021/04/04 03:05:06;;;;;;;8.80;5.03;;;-0.50;88.70;;;;;;5051297;28;20423;-60
2021/04/04 03:07:34;;;;;;;9.20;5.57;;;-0.50;88.90;;;;;;5049003;28;20434;-59
2021/04/04 03:10:02;;;;;;;13.20;6.10;;;-0.50;89.20;;;;;;5045503;28;20432;-60
2021/04/04 03:12:30;;;;;;;9.80;4.57;;;-0.50;89.40;;;;;;5049539;28;20524;-60
2021/04/04 03:14:58;;;;;;;11.03;5.50;;;-0.60;89.70;;;;;;5041889;28;20522;-60
2021/04/04 03:17:26;;;;;;;12.10;6.20;;;-0.60;89.90;;;;;;5050909;28;20465;-60
2021/04/04 03:19:52;;;;;;;18.50;6.40;;;-0.60;89.90;;;;;;5045984;28;20438;-60
2021/04/04 03:22:20;;;;;;;8.77;5.43;;;-0.50;90.00;;;;;;5047526;28;20448;-60
2021/04/04 03:24:47;;;;;;;15.50;5.57;;;-0.50;90.10;;;;;;5048405;28;20825;-59
2021/04/04 03:27:13;;;;;;;8.00;4.83;;;-0.60;89.20;;;;;;5046663;28;20973;-60
2021/04/04 03:29:40;;;;;;;10.57;5.23;;;-0.60;88.90;;;;;;5041429;28;20444;-60
2021/04/04 03:32:07;;;;;;;10.10;4.70;;;-0.60;88.80;;;;;;5049475;28;20503;-60
2021/04/04 03:34:34;;;;;;;11.07;5.07;;;-0.60;89.00;;;;;;5047418;28;20499;-61
2021/04/04 03:37:00;;;;;;;8.57;4.60;;;-0.60;89.20;;;;;;5048211;28;20540;-60
2021/04/04 03:39:28;;;;;;;6.40;4.57;;;-0.60;89.00;;;;;;5045746;28;20436;-60
2021/04/04 03:41:56;;;;;;;11.87;4.73;;;-0.70;89.30;;;;;;5048342;28;20458;-60
2021/04/04 03:44:29;;;;;;;10.40;4.73;;;-0.70;89.60;;;;;;5041108;28;20455;-61
2021/04/04 03:46:56;;;;;;;8.60;5.00;;;-0.70;89.80;;;;;;5054581;28;20442;-60
2021/04/04 03:49:24;;;;;;;7.87;4.57;;;-0.80;90.00;;;;;;5046961;28;20577;-60
2021/04/04 03:51:57;;;;;;;6.13;4.27;;;-0.80;90.00;;;;;;5048640;28;20454;-59
2021/04/04 03:54:24;;;;;;;8.90;4.70;;;-0.80;90.10;;;;;;5047087;28;20450;-60
2021/04/04 03:56:52;;;;;;;11.33;5.10;;;-0.90;90.10;;;;;;5043354;28;20463;-60
2021/04/04 03:59:20;;;;;;;10.67;4.90;;;-0.80;90.10;;;;;;5045904;28;20447;-60
2021/04/04 04:01:47;;;;;;;5.37;4.03;;;-0.90;90.20;;;;;;5043557;28;20461;-60
2021/04/04 04:04:14;;;;;;;6.80;4.37;;;-0.90;90.20;;;;;;5046067;28;20555;-59
2021/04/04 04:06:43;;;;;;;7.40;4.27;;;-0.90;90.20;;;;;;5047669;28;20403;-60
2021/04/04 04:09:15;;;;;;;8.97;4.30;;;-0.90;90.10;;;;;;5043316;28;20437;-60
2021/04/04 04:11:43;;;;;;;7.60;4.67;;;-0.90;90.30;;;;;;5041003;28;20576;-60
2021/04/04 04:14:15;;;;;;;9.70;4.70;;;-0.90;90.50;;;;;;5042445;28;21172;-60
2021/04/04 04:16:42;;;;;;;11.20;5.50;;;-1.00;90.50;;;;;;5062597;28;20436;-60
2021/04/04 04:19:09;;;;;;;6.13;4.40;;;-1.00;90.50;;;;;;5047436;28;20534;-59
2021/04/04 04:21:37;;;;;;;8.23;4.33;;;-1.00;90.60;;;;;;5040443;28;20511;-60
2021/04/04 04:24:12;;;;;;;7.07;4.83;;;-1.00;90.80;;;;;;5045021;28;20459;-60
2021/04/04 04:26:48;;;;;;;6.47;4.40;;;-1.00;91.00;;;;;;5043371;28;20492;-60
2021/04/04 04:29:16;;;;;;;13.07;5.00;;;-1.10;90.90;;;;;;5046791;28;20443;-60
2021/04/04 04:31:52;;;;;;;7.20;4.60;;;-1.00;90.80;;;;;;5045310;28;20462;-59
2021/04/04 04:34:20;;;;;;;10.37;4.53;;;-1.00;91.00;;;;;;5051020;28;20437;-60
2021/04/04 04:36:47;;;;;;;8.33;3.83;;;-1.10;90.70;;;;;;5048679;28;20442;-60
2021/04/04 04:39:14;;;;;;;8.63;4.00;;;-1.00;90.70;;;;;;5043409;28;20517;-61
2021/04/04 04:41:48;;;;;;;8.10;4.30;;;-1.00;90.80;;;;;;5047942;28;20895;-60
2021/04/04 04:44:19;;;;;;;9.57;5.10;;;-1.10;91.00;;;;;;5045807;28;20468;-60
2021/04/04 04:46:45;;;;;;;6.70;4.57;;;-1.10;91.10;;;;;;5050157;28;20815;-61
2021/04/04 04:49:11;;;;;;;12.43;4.97;;;-1.10;91.20;;;;;;5050041;28;20952;-60
2021/04/04 04:51:37;;;;;;;10.40;5.30;;;-1.10;91.40;;;;;;5055857;28;20457;-61
2021/04/04 04:54:04;;;;;;;5.53;4.00;;;-1.10;91.40;;;;;;5045898;28;20679;-60
2021/04/04 04:56:29;;;;;;;10.97;4.60;;;-1.10;91.40;;;;;;5047206;28;20517;-60
2021/04/04 04:58:56;;;;;;;6.50;4.93;;;-1.10;91.40;;;;;;5046348;28;20541;-60
2021/04/04 05:01:26;;;;;;;9.67;4.90;;;-1.10;91.30;;;;;;5048156;28;20455;-60
2021/04/04 05:03:52;;;;;;;8.33;4.50;;;-1.10;91.40;;;;;;5050222;28;20950;-60
2021/04/04 05:06:19;;;;;;;8.13;4.77;;;-1.10;91.30;;;;;;5054947;28;20439;-60
2021/04/04 05:08:46;;;;;;;10.93;4.80;;;-1.10;91.50;;;;;;5056430;28;20614;-60
2021/04/04 05:11:14;;;;;;;12.80;4.37;;;-1.10;91.60;;;;;;5049248;28;20555;-61
2021/04/04 05:13:41;;;;;;;5.67;4.30;;;-1.20;91.60;;;;;;5043444;28;20891;-60
2021/04/04 05:16:11;;;;;;;8.80;4.70;;;-1.20;91.60;;;;;;5049005;28;20434;-60
2021/04/04 05:18:45;;;;;;;9.53;5.07;;;-1.20;91.60;;;;;;5051712;28;20451;-60
2021/04/04 05:21:11;;;;;;;10.90;4.80;;;-1.20;91.50;;;;;;5049483;28;20455;-60
2021/04/04 05:23:37;;;;;;;13.30;5.20;;;-1.10;91.50;;;;;;5041501;28;20587;-61
2021/04/04 05:26:04;;;;;;;8.67;4.77;;;-1.20;91.60;;;;;;5045054;28;20985;-61
2021/04/04 05:28:32;;;;;;;11.20;5.10;;;-1.20;91.80;;;;;;5045794;28;20641;-61
2021/04/04 05:31:04;;;;;;;8.70;4.70;;;-1.20;91.70;;;;;;5046670;28;20544;-61
2021/04/04 05:33:32;;;;;;;7.63;4.40;;;-1.10;91.70;;;;;;5040032;28;20476;-63
2021/04/04 05:36:02;;;;;;;9.33;4.50;;;-1.20;91.70;;;;;;5046094;28;20423;-62
2021/04/04 05:38:28;;;;;;;4.37;3.83;;;-1.20;91.70;;;;;;5041589;28;20456;-61
2021/04/04 05:41:02;;;;;;;8.83;4.90;;;-1.20;91.80;;;;;;5048107;28;20586;-59
2021/04/04 05:43:36;;;;;;;8.90;5.50;;;-1.10;91.70;;;;;;5045997;28;20457;-60
2021/04/04 05:46:04;;;;;;;11.53;6.60;;;-1.00;91.90;;;;;;5041903;28;20930;-60
2021/04/04 05:48:45;;;;;;;12.90;6.17;;;-0.90;91.80;;;;;;5046542;28;20436;-60
2021/04/04 05:51:32;;;;;;;12.63;6.47;;;-0.80;91.40;;;;;;5046740;28;20446;-59
2021/04/04 05:54:28;;;;;;;13.33;7.17;;;-0.70;91.20;;;;;;5038031;28;20442;-61
2021/04/04 05:56:58;;;;;;;13.70;5.80;;;-0.60;91.30;;;;;;5044266;28;20541;-61
2021/04/04 05:59:33;;;;;;;12.90;5.77;;;-0.50;91.10;;;;;;5041906;28;20477;-60
2021/04/04 06:02:02;;;;;;;9.00;5.57;;;-0.40;90.80;;;;;;5050929;28;20446;-61
2021/04/04 06:04:39;;;;;;;15.10;6.33;;;-0.30;91.10;;;;;;5055696;28;20438;-60
2021/04/04 06:07:31;;;;;;;9.33;4.73;;;-0.20;91.20;;;;;;5043695;28;20503;-60
2021/04/04 06:10:04;;;;;;;9.60;4.87;;;-0.10;91.20;;;;;;5045758;28;20440;-59
2021/04/04 06:12:59;;;;;;;9.50;5.67;;;0.00;91.10;;;;;;5041973;28;21022;-59
2021/04/04 06:15:50;;;;;;;12.17;5.70;;;0.20;90.60;;;;;;5042189;28;21162;-60
2021/04/04 06:18:35;;;;;;;10.80;5.30;;;0.30;90.50;;;;;;5046363;28;20457;-60
2021/04/04 06:21:25;;;;;;;11.57;5.53;;;0.40;90.10;;;;;;5051347;28;20482;-58
2021/04/04 06:24:06;;;;;;;10.73;6.00;;;0.50;88.50;;;;;;5042555;28;20952;-57
2021/04/04 06:26:51;;;;;;;10.97;5.43;;;0.60;88.20;;;;;;5043168;28;20446;-60
2021/04/04 06:29:35;;;;;;;7.50;5.03;;;0.60;88.90;;;;;;5039461;28;20967;-59
2021/04/04 06:32:11;;;;;;;10.20;4.77;;;0.70;88.70;;;;;;5046065;28;20443;-59
2021/04/04 06:34:40;;;;;;;6.70;4.40;;;0.80;88.00;;;;;;5042971;28;20441;-59
2021/04/04 06:37:52;;;;;;;10.77;4.57;;;0.90;87.50;;;;;;5045553;28;20458;-58
2021/04/04 06:40:38;;;;;;;15.30;6.00;;;0.90;86.10;;;;;;5032452;28;20454;-59
2021/04/04 06:43:16;;;;;;;8.07;5.13;;;1.00;86.10;;;;;;5040925;28;20449;-60
2021/04/04 06:46:11;;;;;;;12.00;5.57;;;1.10;85.90;;;;;;5048273;28;20434;-61
2021/04/04 06:49:00;;;;;;;8.57;4.30;;;1.20;86.50;;;;;;5025089;28;20435;-60
2021/04/04 06:51:47;;;;;;;13.53;5.73;;;1.30;86.40;;;;;;5045674;28;20466;-60
2021/04/04 06:54:31;;;;;;;8.80;5.70;;;1.40;85.50;;;;;;5043062;28;20437;-60
2021/04/04 06:57:15;;;;;;;11.87;6.80;;;1.60;86.00;;;;;;5046539;28;20443;-60
2021/04/04 06:59:44;;;;;;;7.40;4.97;;;1.70;86.40;;;;;;5042499;28;20605;-61
2021/04/04 07:02:12;;;;;;;13.17;5.40;;;1.80;86.30;;;;;;5041911;28;20450;-62
2021/04/04 07:04:50;;;;;;;10.00;5.10;;;1.90;85.60;;;;;;5050764;28;20428;-60
2021/04/04 07:07:32;;;;;;;7.30;5.13;;;2.00;85.50;;;;;;5045618;28;20447;-60
2021/04/04 07:10:28;;;;;;;12.63;5.80;;;2.10;85.60;;;;;;5036698;28;20482;-61
2021/04/04 07:13:05;;;;;;;7.20;5.00;;;2.30;85.60;;;;;;5035853;28;20439;-61
2021/04/04 07:15:37;;;;;;;9.93;5.37;;;2.40;86.30;;;;;;5040207;28;20438;-61
2021/04/04 07:18:23;;;;;;;10.53;4.80;;;2.60;86.00;;;;;;5041153;28;21042;-61
2021/04/04 07:21:07;;;;;;;9.83;4.93;;;2.80;84.70;;;;;;5035956;28;20545;-62
2021/04/04 07:23:51;;;;;;;8.43;4.27;;;3.00;83.90;;;;;;5048021;28;20433;-62
2021/04/04 07:26:48;;;;;;;11.50;5.23;;;3.20;83.30;;;;;;5019622;28;20436;-61
2021/04/04 07:29:20;;;;;;;11.53;4.50;;;3.40;82.30;;;;;;5038978;28;20455;-59
2021/04/04 07:31:51;;;;;;;7.80;4.30;;;3.50;81.10;;;;;;5039881;28;20451;-63
2021/04/04 07:34:22;;;;;;;15.53;5.23;;;3.60;78.80;;;;;;5045853;28;20458;-60
2021/04/04 07:37:03;;;;;;;9.40;4.70;;;3.80;78.60;;;;;;5055755;28;20433;-63
2021/04/04 07:39:38;;;;;;;8.80;4.70;;;3.90;78.70;;;;;;5039098;28;20422;-61
2021/04/04 07:42:23;;;;;;;8.03;3.87;;;4.00;77.00;;;;;;5035262;28;21280;-61
2021/04/04 07:44:51;;;;;;;14.60;4.40;;;4.20;75.60;;;;;;5033730;28;20800;-59
2021/04/04 07:47:34;;;;;;;12.07;4.50;;;4.40;73.00;;;;;;5051566;28;20447;-61
2021/04/04 07:50:05;;;;;;;6.63;3.93;;;4.50;72.80;;;;;;5044308;28;20436;-59
2021/04/04 07:52:43;;;;;;;8.20;4.40;;;4.70;72.20;;;;;;5042971;28;20487;-57
2021/04/04 07:55:11;;;;;;;11.00;4.50;;;4.80;72.20;;;;;;5042253;28;20487;-60
2021/04/04 07:57:51;;;;;;;5.20;4.07;;;5.00;71.80;;;;;;5043230;28;20464;-60
2021/04/04 08:00:18;;;;;;;7.30;3.37;;;5.10;68.90;;;;;;5052658;28;20438;-61
2021/04/04 08:02:52;;;;;;;7.13;3.83;;;5.30;65.50;;;;;;5058861;28;20430;-67
2021/04/04 08:05:28;;;;;;;7.23;3.37;;;5.40;63.40;;;;;;5064820;28;20414;-63
2021/04/04 08:08:04;;;;;;;13.03;3.53;;;5.60;60.30;;;;;;5060536;28;20957;-63
2021/04/04 08:10:43;;;;;;;9.97;4.30;;;5.70;59.50;;;;;;5075104;28;20476;-66
2021/04/04 08:13:36;;;;;;;5.00;3.37;;;5.80;58.90;;;;;;5050512;28;20444;-65
2021/04/04 08:16:23;;;;;;;6.80;3.20;;;6.00;58.00;;;;;;5045133;28;20442;-62
2021/04/04 08:18:49;;;;;;;8.70;3.57;;;6.20;56.50;;;;;;5040787;28;20504;-62
2021/04/04 08:21:35;;;;;;;6.00;3.60;;;6.30;55.10;;;;;;5041225;28;20568;-62
2021/04/04 08:24:09;;;;;;;7.97;3.83;;;6.50;55.40;;;;;;5042769;28;21118;-63
2021/04/04 08:26:53;;;;;;;7.33;3.23;;;6.60;54.20;;;;;;5037790;28;20508;-62
2021/04/04 08:29:33;;;;;;;4.93;3.37;;;6.80;53.10;;;;;;5039333;28;20818;-62
2021/04/04 08:32:02;;;;;;;9.00;3.40;;;6.80;51.60;;;;;;5041446;28;21307;-60
2021/04/04 08:34:39;;;;;;;4.60;3.00;;;6.90;50.70;;;;;;5038208;28;20434;-61
2021/04/04 08:37:14;;;;;;;7.00;3.00;;;7.10;49.20;;;;;;5044281;28;20425;-63
2021/04/04 08:39:53;;;;;;;5.90;2.97;;;7.10;48.20;;;;;;5038202;28;20500;-64
2021/04/04 08:42:19;;;;;;;4.93;3.30;;;7.20;47.50;;;;;;5040557;28;20518;-61
2021/04/04 08:44:51;;;;;;;12.27;3.80;;;7.30;46.80;;;;;;5039945;28;20462;-64
2021/04/04 08:47:27;;;;;;;5.30;3.30;;;7.50;47.60;;;;;;5050631;28;21010;-59
2021/04/04 08:49:53;;;;;;;4.33;3.50;;;7.60;46.90;;;;;;5038987;28;21018;-62
2021/04/04 08:52:29;;;;;;;7.37;3.50;;;7.80;46.50;;;;;;5037550;28;20435;-61
2021/04/04 08:54:55;;;;;;;6.17;2.90;;;7.90;45.50;;;;;;5040111;28;20954;-61
2021/04/04 08:57:45;;;;;;;5.20;3.17;;;8.00;44.90;;;;;;5044421;28;20449;-62
2021/04/04 09:00:13;;;;;;;8.93;3.90;;;8.20;44.30;;;;;;5042030;28;20545;-62
2021/04/04 09:02:55;;;;;;;6.00;3.40;;;8.30;44.00;;;;;;5041552;28;20494;-61
2021/04/04 09:05:23;;;;;;;7.93;3.10;;;8.50;43.90;;;;;;5044642;28;21017;-62
2021/04/04 09:07:50;;;;;;;7.20;3.20;;;8.60;43.20;;;;;;5042571;28;20512;-61
2021/04/04 09:10:17;;;;;;;5.87;2.93;;;8.70;43.20;;;;;;5042268;28;20458;-61
2021/04/04 09:12:44;;;;;;;11.07;3.27;;;8.80;43.30;;;;;;5042430;28;20508;-61
2021/04/04 09:15:12;;;;;;;6.17;3.17;;;8.90;43.40;;;;;;5041108;28;20575;-61
2021/04/04 09:17:48;;;;;;;7.10;3.20;;;9.00;42.90;;;;;;5041452;28;20533;-61
2021/04/04 09:20:13;;;;;;;7.00;3.10;;;9.10;42.40;;;;;;5044205;28;20449;-62
2021/04/04 09:22:47;;;;;;;3.90;3.03;;;9.20;41.80;;;;;;5046790;28;20522;-60
2021/04/04 09:25:14;;;;;;;3.80;2.90;;;9.30;40.80;;;;;;5048485;28;20810;-60
2021/04/04 09:27:42;;;;;;;4.80;2.83;;;9.40;39.60;;;;;;5049390;28;20469;-62
2021/04/04 09:30:23;;;;;;;9.03;3.40;;;9.50;39.70;;;;;;5047333;28;21108;-61
2021/04/04 09:32:53;;;;;;;8.63;3.17;;;9.60;40.30;;;;;;5047442;28;20524;-61
2021/04/04 09:35:22;;;;;;;5.00;3.03;;;9.60;40.30;;;;;;5051246;28;20461;-61
2021/04/04 09:37:50;;;;;;;7.17;2.60;;;9.70;39.90;;;;;;5048367;28;20996;-61
2021/04/04 09:40:17;;;;;;;6.00;2.80;;;9.80;40.20;;;;;;5043822;28;20461;-61
2021/04/04 09:42:43;;;;;;;8.30;3.43;;;9.90;39.90;;;;;;5053695;28;20435;-60
2021/04/04 09:45:20;;;;;;;7.93;3.20;;;10.00;38.70;;;;;;5048527;28;20437;-61
2021/04/04 09:47:46;;;;;;;6.50;3.20;;;10.00;39.70;;;;;;5052312;28;20429;-61
2021/04/04 09:50:31;;;;;;;4.93;3.03;;;10.10;39.60;;;;;;5051808;28;20484;-60
2021/04/04 09:52:58;;;;;;;6.13;3.30;;;10.30;39.30;;;;;;5047401;28;20430;-60
2021/04/04 09:55:27;;;;;;;5.97;4.03;;;10.40;38.90;;;;;;5052518;28;20972;-59
2021/04/04 09:57:55;;;;;;;5.37;2.70;;;10.50;38.30;;;;;;5043131;28;22582;-60
2021/04/04 10:00:22;;;;;;;12.50;3.20;;;10.50;37.10;;;;;;5047227;28;20495;-60
2021/04/04 10:02:50;;;;;;;6.83;3.30;;;10.50;36.90;;;;;;5042241;28;20442;-60
2021/04/04 10:05:32;;;;;;;9.80;3.20;;;10.60;37.80;;;;;;5045795;28;20849;-65
2021/04/04 10:08:10;;;;;;;6.13;2.63;;;10.70;38.00;;;;;;5044678;28;20431;-61
2021/04/04 10:10:37;;;;;;;5.70;3.20;;;10.70;36.70;;;;;;5048012;28;20472;-61
2021/04/04 10:13:04;;;;;;;6.83;3.20;;;10.80;35.50;;;;;;5047576;28;21009;-60
2021/04/04 10:15:50;;;;;;;6.00;3.00;;;10.90;35.30;;;;;;5047690;28;20452;-62
2021/04/04 10:18:18;;;;;;;5.80;2.90;;;11.00;34.50;;;;;;5044466;28;21007;-61
2021/04/04 10:20:53;;;;;;;5.53;2.93;;;11.00;34.10;;;;;;5045516;28;20540;-62
2021/04/04 10:23:27;;;;;;;5.43;3.17;;;11.10;34.70;;;;;;5050855;28;20988;-62
2021/04/04 10:26:08;;;;;;;5.57;2.97;;;11.20;34.40;;;;;;5046170;28;20963;-61
2021/04/04 10:28:49;;;;;;;5.17;3.17;;;11.30;33.30;;;;;;5049660;28;20524;-62
2021/04/04 10:31:16;;;;;;;7.90;3.20;;;11.30;33.50;;;;;;5049462;28;20460;-61
2021/04/04 10:33:42;;;;;;;7.37;3.57;;;11.40;34.60;;;;;;5050244;28;20435;-62
2021/04/04 10:36:14;;;;;;;5.23;2.70;;;11.50;35.20;;;;;;5044315;28;20440;-59
2021/04/04 10:38:39;;;;;;;7.03;3.30;;;11.60;35.20;;;;;;5045587;28;20472;-61
2021/04/04 10:41:05;;;;;;;13.73;4.90;;;11.50;34.70;;;;;;5048535;28;20992;-61
2021/04/04 10:43:41;;;;;;;7.40;3.57;;;11.60;38.80;;;;;;5041222;28;20650;-60
2021/04/04 10:46:12;;;;;;;6.13;2.93;;;11.90;39.40;;;;;;5035281;28;20441;-60
2021/04/04 10:48:43;;;;;;;11.60;3.23;;;12.20;38.60;;;;;;5037734;28;20468;-60
2021/04/04 10:51:11;;;;;;;5.20;3.03;;;12.20;33.00;;;;;;5038863;28;20448;-62
2021/04/04 10:53:38;;;;;;;7.10;3.10;;;12.30;34.70;;;;;;5042616;28;20516;-60
2021/04/04 10:56:08;;;;;;;8.13;2.70;;;12.30;33.00;;;;;;5047662;28;20429;-61
2021/04/04 10:58:37;;;;;;;5.50;3.07;;;12.30;33.40;;;;;;5045026;28;20488;-60
2021/04/04 11:01:06;;;;;;;4.03;2.73;;;12.20;32.70;;;;;;5046413;28;20444;-64
2021/04/04 11:03:32;;;;;;;8.13;2.73;;;12.20;33.90;;;;;;5045196;28;20438;-61
2021/04/04 11:06:00;;;;;;;4.47;2.97;;;12.30;34.20;;;;;;5045917;28;20432;-61
2021/04/04 11:08:26;;;;;;;5.30;3.13;;;12.50;33.80;;;;;;5049698;28;20465;-63
2021/04/04 11:10:52;;;;;;;6.97;3.93;;;12.60;34.00;;;;;;5047324;28;20926;-61
2021/04/04 11:13:20;;;;;;;7.67;3.10;;;12.60;33.90;;;;;;5048262;28;20713;-60
2021/04/04 11:15:58;;;;;;;3.40;2.50;;;12.70;34.40;;;;;;5049078;28;20429;-61
2021/04/04 11:18:31;;;;;;;5.80;2.87;;;12.70;34.30;;;;;;5049514;28;20465;-61
2021/04/04 11:21:23;;;;;;;9.20;2.73;;;12.80;33.30;;;;;;5044059;28;20453;-60
2021/04/04 11:23:49;;;;;;;6.03;3.30;;;13.00;33.70;;;;;;5037536;28;20434;-63
2021/04/04 11:26:32;;;;;;;9.87;3.47;;;13.10;34.60;;;;;;5047586;28;20437;-61
2021/04/04 11:29:10;;;;;;;10.30;3.57;;;13.20;33.30;;;;;;5048750;28;20185;-61
2021/04/04 11:31:37;;;;;;;7.73;3.30;;;13.30;33.10;;;;;;5044928;28;20461;-62
2021/04/04 11:34:22;;;;;;;12.53;3.80;;;13.40;33.40;;;;;;5046412;28;20433;-62
2021/04/04 11:36:48;;;;;;;4.40;2.77;;;13.60;31.80;;;;;;5048977;28;20437;-59
2021/04/04 11:39:14;;;;;;;9.80;3.30;;;13.70;32.20;;;;;;5041291;28;20549;-60
2021/04/04 11:41:49;;;;;;;6.63;2.93;;;13.80;31.70;;;;;;5047859;28;20203;-60
2021/04/04 11:44:22;;;;;;;3.40;2.90;;;13.90;31.40;;;;;;5047052;28;20175;-62
2021/04/04 11:46:54;;;;;;;6.73;3.50;;;14.00;30.70;;;;;;5040845;28;20442;-65
2021/04/04 11:49:39;;;;;;;8.03;3.80;;;14.10;31.00;;;;;;5044779;28;20425;-62
2021/04/04 11:52:07;;;;;;;7.07;3.63;;;14.20;30.50;;;;;;5045976;28;20836;-60
2021/04/04 11:54:45;;;;;;;4.97;3.00;;;14.30;31.00;;;;;;5040690;28;20453;-61
2021/04/04 11:57:27;;;;;;;7.10;2.97;;;14.40;31.20;;;;;;5041700;28;20461;-60
2021/04/04 11:59:56;;;;;;;6.27;3.20;;;14.60;31.70;;;;;;5043432;28;20422;-58
2021/04/04 12:02:28;;;;;;;12.17;3.50;;;14.70;31.50;;;;;;5038486;28;20815;-61
2021/04/04 12:05:11;;;;;;;4.80;2.90;;;14.80;29.00;;;;;;5043441;28;20457;-60
2021/04/04 12:07:51;;;;;;;7.50;2.90;;;14.70;29.30;;;;;;5034212;28;20441;-62
2021/04/04 12:10:19;;;;;;;9.80;2.93;;;14.70;30.10;;;;;;5041162;28;20468;-61
2021/04/04 12:12:45;;;;;;;7.87;3.80;;;14.80;31.00;;;;;;5040419;28;20815;-61
2021/04/04 12:15:12;;;;;;;8.33;4.40;;;15.10;30.20;;;;;;5048199;28;20850;-61
2021/04/04 12:17:43;;;;;;;4.13;2.97;;;15.20;30.00;;;;;;5042265;28;20518;-60
2021/04/04 12:20:09;;;;;;;6.33;3.37;;;15.50;29.90;;;;;;5037611;28;20499;-61
2021/04/04 12:22:40;;;;;;;4.40;3.33;;;15.70;30.60;;;;;;5036093;28;20442;-63
2021/04/04 12:25:18;;;;;;;7.87;2.77;;;15.80;29.30;;;;;;5036658;28;20512;-62
2021/04/04 12:27:46;;;;;;;5.80;2.83;;;15.90;27.60;;;;;;5029976;28;20515;-58
2021/04/04 12:30:25;;;;;;;4.10;2.97;;;15.60;27.40;;;;;;5052126;28;20465;-59
2021/04/04 12:33:11;;;;;;;8.13;2.83;;;15.60;31.90;;;;;;5041273;28;20433;-58
2021/04/04 12:35:39;;;;;;;8.60;2.77;;;15.90;30.60;;;;;;5032930;28;20433;-60
2021/04/04 12:38:05;;;;;;;5.50;2.90;;;16.00;30.30;;;;;;5038953;28;20561;-60
2021/04/04 12:40:31;;;;;;;8.03;3.23;;;16.30;28.10;;;;;;5041493;28;20583;-62
2021/04/04 12:43:00;;;;;;;4.50;2.90;;;16.30;27.80;;;;;;5038949;28;20271;-60
2021/04/04 12:45:31;;;;;;;8.40;3.87;;;16.30;28.00;;;;;;5034892;28;21016;-62
2021/04/04 12:47:57;;;;;;;6.23;3.30;;;16.40;27.30;;;;;;5046328;28;20537;-59
2021/04/04 12:50:23;;;;;;;7.53;3.13;;;16.40;28.80;;;;;;5047299;28;21016;-61
2021/04/04 12:52:51;;;;;;;5.47;2.67;;;16.60;28.60;;;;;;5042023;28;20189;-60
2021/04/04 12:55:19;;;;;;;4.00;2.83;;;16.80;28.20;;;;;;5044018;28;20289;-61
2021/04/04 12:57:53;;;;;;;6.07;2.60;;;17.00;27.50;;;;;;5048405;28;20487;-60
2021/04/04 13:00:23;;;;;;;5.53;2.90;;;17.10;26.50;;;;;;5051372;28;20449;-60
2021/04/04 13:02:59;;;;;;;4.67;2.97;;;17.10;28.40;;;;;;5047644;28;20433;-60
2021/04/04 13:05:31;;;;;;;5.40;2.60;;;17.10;28.30;;;;;;5052530;28;20447;-61
2021/04/04 13:07:57;;;;;;;5.40;2.50;;;17.30;28.10;;;;;;5050269;28;20525;-61
2021/04/04 13:10:23;;;;;;;5.03;2.37;;;17.60;28.40;;;;;;5049822;28;20549;-62
2021/04/04 13:12:49;;;;;;;5.67;3.13;;;17.80;28.10;;;;;;5048498;28;20372;-61